Lakeshore, California
Current Conditions -  °F | °C
As of 4:55 AM on Thursday 23 Oct 2014 (Local Time) from KMMH Reporting Station
Clear Clear  
Wind Chill: 35°   Ceiling: Unl
Heat Index: 39°   Visibility: 10mi
Dew Point: 19°   Wind: 6mph
Humidity: 45%   Direction: 240°WSW
Pressure: 30.23"   Gusts: NA
Location:  37.25°N, 119.18°W
Report Text: KMMH 231155Z AUTO 24005KT 10SM CLR 04/M07 A3023 RMK AO1
Loading
Personal Weather Stations






























Interactive Weather Map
Tropical Storm Tracking
New forecast layout! Learn more

10-Day Weather Forecast

Advertisements
Track Severe Weather on mobile